LEMD/MAD METAR and TAF weather

Enter ICAO airport designator
Station Type Date Time Source
LEMD METAR 2019/06/17 14:30 UTC NOAA

LEMD 171430Z 23011G28KT 190V260 CAVOK 31/M02 Q1015 NOSIG


Station Type Date Time Source
LEMD Decoded METAR 2019/06/17 14:30 UTC NOAA

Madrid / Barajas, Spain (LEMD) 40-27N 003-33W 582M
Jun 17, 2019 - 10:30 AM EDT / 2019.06.17 1430 UTC
Wind: from the SW (230 degrees) at 13 MPH (11 KT) gusting to 32 MPH (28 KT) (direction variable):0
Visibility: greater than 7 mile(s):0
Temperature: 87 F (31 C)
Dew Point: 28 F (-2 C)
Relative Humidity: 11%
Pressure (altimeter): 29.97 in. Hg (1015 hPa)
ob: LEMD 171430Z 23011G28KT 190V260 CAVOK 31/M02 Q1015 NOSIG
cycle: 14

Station Type Date Time Source
LEMD TAF 2019/06/17 12:28 UTC NOAA

TAF LEMD 171100Z 1712/1818 VRB05KT CAVOK TX33/1716Z TN16/1805Z
TEMPO 1712/1718 21010KT PROB30
TEMPO 1712/1719 22008G18KT
TEMPO 1719/1722 28007KT
BECMG 1807/1808 22012KT
TEMPO 1812/1818 22015G28KT

Example: see airport list